createdAt,value
2023-05-06T00:02:15.035Z,1.83
2023-05-06T00:04:42.544Z,1.47
2023-05-06T00:07:10.440Z,1.37
2023-05-06T00:09:38.007Z,2.00
2023-05-06T00:14:51.308Z,1.60
2023-05-06T00:17:19.301Z,2.07
2023-05-06T00:19:46.492Z,2.17
2023-05-06T00:22:13.577Z,2.20
2023-05-06T00:24:40.797Z,1.90
2023-05-06T00:27:07.676Z,2.70
2023-05-06T00:29:35.110Z,1.93
2023-05-06T00:34:43.730Z,1.77
2023-05-06T00:37:11.632Z,1.70
2023-05-06T00:39:38.880Z,1.77
2023-05-06T00:42:07.385Z,3.07
2023-05-06T00:44:34.735Z,2.07
2023-05-06T00:47:02.313Z,2.23
2023-05-06T00:49:30.610Z,2.23
2023-05-06T00:54:55.833Z,2.40
2023-05-06T00:57:23.200Z,2.40
2023-05-06T00:59:50.530Z,1.73
2023-05-06T01:02:17.573Z,1.93
2023-05-06T01:04:44.905Z,2.20
2023-05-06T01:07:23.910Z,2.00
2023-05-06T01:10:01.787Z,2.13
2023-05-06T01:15:45.032Z,1.50
2023-05-06T01:18:16.532Z,2.17
2023-05-06T01:20:49.207Z,1.47
2023-05-06T01:23:18.036Z,1.50
2023-05-06T01:25:44.937Z,1.90
2023-05-06T01:28:13.710Z,1.40
2023-05-06T01:30:49.087Z,1.57
2023-05-06T01:36:08.588Z,1.87
2023-05-06T01:38:43.454Z,1.60
2023-05-06T01:41:13.775Z,1.60
2023-05-06T01:43:44.103Z,1.60
2023-05-06T01:46:15.376Z,2.00
2023-05-06T01:48:45.280Z,1.83
2023-05-06T01:51:13.332Z,2.00
2023-05-06T01:56:29.723Z,2.27
2023-05-06T01:58:59.276Z,2.67
2023-05-06T02:01:26.802Z,2.50
2023-05-06T02:03:54.690Z,2.50
2023-05-06T02:06:21.976Z,2.00
2023-05-06T02:08:49.301Z,2.90
2023-05-06T02:11:16.666Z,3.07
2023-05-06T02:19:42.843Z,2.70
2023-05-06T02:22:10.685Z,2.37
2023-05-06T02:24:37.991Z,2.87
2023-05-06T02:27:05.920Z,2.40
2023-05-06T02:29:33.214Z,2.50
2023-05-06T02:32:01.321Z,2.70
2023-05-06T02:34:28.586Z,2.40
2023-05-06T02:36:57.108Z,2.43
2023-05-06T02:44:29.810Z,2.87
2023-05-06T02:46:57.421Z,2.53
2023-05-06T02:49:24.321Z,2.50
2023-05-06T02:51:52.227Z,2.50
2023-05-06T02:54:19.143Z,1.93
2023-05-06T02:56:46.224Z,2.80
2023-05-06T02:59:14.003Z,3.03
2023-05-06T03:01:42.299Z,3.67
2023-05-06T03:09:16.257Z,3.50
2023-05-06T03:11:43.338Z,3.73
2023-05-06T03:14:10.679Z,4.17
2023-05-06T03:16:38.229Z,4.27
2023-05-06T03:19:06.000Z,4.17
2023-05-06T03:21:33.449Z,4.57
2023-05-06T03:24:00.605Z,5.17
2023-05-06T03:29:15.825Z,5.37
2023-05-06T03:31:42.996Z,4.77
2023-05-06T03:34:10.881Z,4.90
2023-05-06T03:36:38.154Z,4.70
2023-05-06T03:39:05.375Z,5.00
2023-05-06T03:41:32.693Z,5.03
2023-05-06T03:43:59.993Z,4.83
2023-05-06T03:49:21.010Z,5.57
2023-05-06T03:51:48.857Z,4.80
2023-05-06T03:54:15.945Z,5.37
2023-05-06T03:56:43.351Z,4.67
2023-05-06T03:59:10.528Z,4.83
2023-05-06T04:01:37.778Z,5.67
2023-05-06T04:04:05.603Z,5.63
2023-05-06T04:09:35.427Z,4.83
2023-05-06T04:12:03.969Z,5.57
2023-05-06T04:14:31.969Z,6.33
2023-05-06T04:16:59.550Z,5.90
2023-05-06T04:19:27.099Z,5.77
2023-05-06T04:21:54.388Z,6.40
2023-05-06T04:24:27.848Z,6.57
2023-05-06T04:29:35.365Z,6.23
2023-05-06T04:32:03.512Z,7.00
2023-05-06T04:34:31.119Z,7.27
2023-05-06T04:36:58.822Z,6.30
2023-05-06T04:39:26.732Z,6.10
2023-05-06T04:41:57.053Z,5.07
2023-05-06T04:44:24.186Z,6.07
2023-05-06T04:49:46.847Z,4.83
2023-05-06T04:52:14.584Z,4.37
2023-05-06T04:57:08.818Z,4.10
2023-05-06T04:59:35.895Z,4.63
2023-05-06T05:02:03.328Z,4.03
2023-05-06T05:04:30.745Z,3.93
2023-05-06T05:11:58.155Z,4.17
2023-05-06T05:14:25.168Z,3.70
2023-05-06T05:16:52.976Z,3.60
2023-05-06T05:19:20.947Z,3.70
2023-05-06T05:21:48.908Z,3.57
2023-05-06T05:24:16.170Z,3.87
2023-05-06T05:26:43.734Z,3.87
2023-05-06T05:29:12.063Z,3.67
2023-05-06T05:36:43.638Z,3.30
2023-05-06T05:39:10.937Z,3.00
2023-05-06T05:41:38.659Z,2.97
2023-05-06T05:44:08.124Z,3.50
2023-05-06T05:46:35.458Z,2.53
2023-05-06T05:49:03.353Z,2.80
2023-05-06T05:51:31.021Z,3.17
2023-05-06T05:56:41.181Z,3.03
2023-05-06T05:59:08.713Z,2.93
2023-05-06T06:01:36.451Z,3.00
2023-05-06T06:04:04.149Z,2.30
2023-05-06T06:06:31.679Z,2.83
2023-05-06T06:08:59.517Z,2.40
2023-05-06T06:11:31.802Z,2.37
2023-05-06T06:14:00.997Z,2.17
2023-05-06T06:21:37.680Z,2.43
2023-05-06T06:24:06.526Z,2.30
2023-05-06T06:26:33.613Z,2.43
2023-05-06T06:29:01.050Z,2.57
2023-05-06T06:31:28.704Z,1.80
2023-05-06T06:33:56.000Z,1.93
2023-05-06T06:36:24.132Z,2.13
2023-05-06T06:42:07.795Z,1.90
2023-05-06T06:44:35.498Z,1.93
2023-05-06T06:47:02.506Z,2.07
2023-05-06T06:49:32.452Z,2.23
2023-05-06T06:51:59.660Z,2.37
2023-05-06T06:54:26.742Z,2.17
2023-05-06T06:56:56.829Z,1.90
2023-05-06T07:02:07.478Z,2.57
2023-05-06T07:04:34.754Z,2.03
2023-05-06T07:07:01.700Z,2.00
2023-05-06T07:09:29.063Z,3.23
2023-05-06T07:11:56.349Z,2.73
2023-05-06T07:14:25.320Z,2.30
2023-05-06T07:16:53.299Z,2.50
2023-05-06T07:22:13.486Z,2.13
2023-05-06T07:24:41.022Z,2.30
2023-05-06T07:27:08.373Z,2.23
2023-05-06T07:29:38.696Z,1.77
2023-05-06T07:32:07.660Z,2.13
2023-05-06T07:34:38.821Z,2.07
2023-05-06T07:37:07.515Z,2.30
2023-05-06T07:47:33.558Z,2.80
2023-05-06T07:50:05.316Z,3.30
2023-05-06T07:52:38.225Z,3.60
2023-05-06T07:55:08.381Z,3.70
2023-05-06T07:57:36.207Z,3.40
2023-05-06T08:00:05.518Z,2.90
2023-05-06T08:02:37.963Z,2.43
2023-05-06T08:10:07.456Z,2.43
2023-05-06T08:12:36.159Z,3.07
2023-05-06T08:15:03.981Z,2.70
2023-05-06T08:17:31.500Z,2.60
2023-05-06T08:19:59.130Z,2.07
2023-05-06T08:22:26.491Z,2.13
2023-05-06T08:24:54.440Z,2.90
2023-05-06T08:27:29.250Z,2.43
2023-05-06T08:35:02.353Z,2.17
2023-05-06T08:37:30.646Z,2.30
2023-05-06T08:39:59.812Z,1.70
2023-05-06T08:42:32.854Z,1.60
2023-05-06T08:45:01.066Z,1.80
2023-05-06T08:47:28.057Z,1.80
2023-05-06T08:49:56.161Z,2.30
2023-05-06T08:57:31.088Z,2.07
2023-05-06T08:59:59.385Z,1.80
2023-05-06T09:02:28.374Z,1.40
2023-05-06T09:04:57.795Z,1.50
2023-05-06T09:07:25.524Z,1.40
2023-05-06T09:09:52.595Z,1.60
2023-05-06T09:12:19.705Z,2.50
2023-05-06T09:19:56.805Z,2.40
2023-05-06T09:22:25.961Z,2.63
2023-05-06T09:24:57.270Z,2.80
2023-05-06T09:27:26.101Z,2.77
2023-05-06T09:30:03.497Z,2.50
2023-05-06T09:32:32.626Z,1.80
2023-05-06T09:35:01.727Z,1.80
2023-05-06T09:42:34.603Z,2.73
2023-05-06T09:45:02.611Z,1.17
2023-05-06T09:47:35.652Z,3.53
2023-05-06T09:50:04.770Z,4.23
2023-05-06T09:52:33.132Z,2.07
2023-05-06T09:55:02.133Z,4.30
2023-05-06T09:57:32.401Z,3.80
2023-05-06T10:02:43.413Z,4.40
2023-05-06T10:05:14.536Z,3.83
2023-05-06T10:07:42.779Z,3.63
2023-05-06T10:10:13.039Z,3.70
2023-05-06T10:12:43.101Z,3.67
2023-05-06T10:15:11.461Z,4.00
2023-05-06T10:17:48.766Z,3.63
2023-05-06T10:25:41.205Z,3.70
2023-05-06T10:28:14.695Z,4.13
2023-05-06T10:30:49.685Z,3.67
2023-05-06T10:33:20.924Z,3.10
2023-05-06T10:35:56.363Z,2.90
2023-05-06T10:38:30.714Z,3.83
2023-05-06T10:41:05.671Z,2.40
2023-05-06T10:48:36.566Z,2.37
2023-05-06T10:51:30.028Z,2.20
2023-05-06T10:54:03.220Z,2.73
2023-05-06T10:56:34.330Z,2.43
2023-05-06T10:59:12.679Z,1.47
2023-05-06T11:01:43.269Z,2.00
2023-05-06T11:04:16.547Z,2.07
2023-05-06T11:12:02.924Z,1.83
2023-05-06T11:14:35.256Z,2.10
2023-05-06T11:17:05.831Z,1.97
2023-05-06T11:19:37.155Z,1.70
2023-05-06T11:22:07.939Z,1.80
2023-05-06T11:24:40.512Z,1.67
2023-05-06T11:27:10.570Z,2.90
2023-05-06T11:34:46.934Z,1.40
2023-05-06T11:37:29.047Z,1.10
2023-05-06T11:40:01.891Z,1.07
2023-05-06T11:42:31.308Z,1.10
2023-05-06T11:45:08.072Z,1.23
2023-05-06T11:47:36.060Z,1.30
2023-05-06T11:50:07.054Z,1.57
2023-05-06T11:57:48.520Z,1.37
2023-05-06T12:00:18.258Z,1.73
2023-05-06T12:02:47.672Z,1.10
2023-05-06T12:05:19.757Z,1.10
2023-05-06T12:07:51.539Z,0.90
2023-05-06T12:10:22.844Z,1.30
2023-05-06T12:12:53.813Z,1.33
2023-05-06T12:20:26.983Z,0.90
2023-05-06T12:23:06.690Z,1.10
2023-05-06T12:25:37.206Z,1.00
2023-05-06T12:28:17.264Z,1.33
2023-05-06T12:30:50.720Z,1.53
2023-05-06T12:33:20.034Z,1.00
2023-05-06T12:35:59.422Z,1.17
2023-05-06T12:43:37.136Z,1.33
2023-05-06T12:46:09.201Z,1.10
2023-05-06T12:48:38.018Z,1.27
2023-05-06T12:51:21.208Z,1.27
2023-05-06T12:53:49.188Z,1.70
2023-05-06T12:56:19.122Z,1.70
2023-05-06T12:59:02.495Z,1.70
2023-05-06T13:06:47.078Z,0.93
2023-05-06T13:09:28.134Z,1.97
2023-05-06T13:21:35.164Z,1.00
2023-05-06T13:24:06.656Z,0.80
2023-05-06T13:26:54.283Z,1.43
2023-05-06T13:32:20.600Z,1.03
2023-05-06T13:34:48.176Z,1.20
2023-05-06T13:37:19.663Z,2.40
2023-05-06T13:39:49.323Z,1.10
2023-05-06T13:42:18.584Z,1.27
2023-05-06T13:44:47.918Z,0.90
2023-05-06T13:47:29.300Z,0.80
2023-05-06T13:55:04.664Z,1.20
2023-05-06T13:57:32.416Z,0.90
2023-05-06T14:00:00.630Z,0.53
2023-05-06T14:02:32.008Z,0.80
2023-05-06T14:05:02.735Z,0.60
2023-05-06T14:07:35.469Z,1.40
2023-05-06T14:10:05.616Z,1.07
2023-05-06T14:19:31.172Z,0.80
2023-05-06T14:22:01.284Z,0.60
2023-05-06T14:24:32.143Z,0.60
2023-05-06T14:27:13.897Z,0.97
2023-05-06T14:29:45.764Z,0.60
2023-05-06T14:32:18.427Z,0.67
2023-05-06T14:34:51.312Z,1.20
2023-05-06T14:40:16.589Z,0.67
2023-05-06T14:42:48.440Z,0.90
2023-05-06T14:45:19.308Z,1.53
2023-05-06T14:47:47.532Z,0.83
2023-05-06T14:50:18.819Z,0.83
2023-05-06T14:52:50.291Z,0.70
2023-05-06T14:55:22.972Z,0.63
2023-05-06T15:03:03.084Z,0.90
2023-05-06T15:05:34.586Z,0.80
2023-05-06T15:08:05.695Z,0.60
2023-05-06T15:10:33.298Z,0.50
2023-05-06T15:13:04.176Z,0.73
2023-05-06T15:15:34.081Z,0.67
2023-05-06T15:18:10.229Z,1.00
2023-05-06T15:23:20.499Z,0.97
2023-05-06T15:25:51.435Z,1.00
2023-05-06T15:28:25.295Z,1.43
2023-05-06T15:30:53.515Z,0.90
2023-05-06T15:33:22.849Z,0.70
2023-05-06T15:35:53.796Z,0.70
2023-05-06T15:38:25.488Z,0.80
2023-05-06T15:44:03.684Z,0.70
2023-05-06T15:46:35.297Z,0.87
2023-05-06T15:49:31.768Z,0.50
2023-05-06T15:51:58.992Z,0.70
2023-05-06T15:54:31.491Z,3.53
2023-05-06T15:57:04.932Z,4.33
2023-05-06T15:59:37.776Z,1.80
2023-05-06T16:07:10.661Z,0.77
2023-05-06T16:09:38.680Z,1.00
2023-05-06T16:12:09.837Z,0.70
2023-05-06T16:14:40.172Z,0.80
2023-05-06T16:17:07.902Z,0.90
2023-05-06T16:19:39.911Z,1.20
2023-05-06T16:22:11.573Z,0.63
2023-05-06T16:27:28.732Z,0.70
2023-05-06T16:30:00.851Z,0.80
2023-05-06T16:32:35.451Z,0.70
2023-05-06T16:35:12.446Z,0.83
2023-05-06T16:37:46.293Z,0.90
2023-05-06T16:40:23.763Z,1.00
2023-05-06T16:43:02.111Z,0.90
2023-05-06T16:50:35.955Z,1.03
2023-05-06T16:53:06.197Z,0.97
2023-05-06T16:55:35.263Z,0.90
2023-05-06T16:58:04.824Z,0.77
2023-05-06T17:00:35.099Z,0.80
2023-05-06T17:03:05.988Z,2.33
2023-05-06T17:05:34.018Z,1.90
2023-05-06T17:13:11.268Z,2.97
2023-05-06T17:15:43.443Z,0.80
2023-05-06T17:18:18.936Z,0.97
2023-05-06T17:20:56.115Z,1.00
2023-05-06T17:23:25.477Z,0.90
2023-05-06T17:26:10.314Z,1.00
2023-05-06T17:28:42.556Z,1.27
2023-05-06T17:33:55.589Z,1.13
2023-05-06T17:36:28.563Z,0.87
2023-05-06T17:39:05.946Z,0.70
2023-05-06T17:41:40.273Z,0.70
2023-05-06T17:44:13.125Z,0.80
2023-05-06T17:46:43.717Z,0.70
2023-05-06T17:49:16.569Z,1.27
2023-05-06T17:56:54.070Z,1.13
2023-05-06T17:59:26.235Z,0.90
2023-05-06T18:02:03.688Z,1.23
2023-05-06T18:04:45.054Z,0.80
2023-05-06T18:07:16.274Z,1.60
2023-05-06T18:09:52.742Z,1.20
2023-05-06T18:12:28.236Z,0.93
2023-05-06T18:20:09.156Z,1.10
2023-05-06T18:22:40.367Z,1.30
2023-05-06T18:25:17.109Z,1.37
2023-05-06T18:27:48.227Z,1.67
2023-05-06T18:30:21.917Z,1.30
2023-05-06T18:32:55.943Z,1.40
2023-05-06T18:35:32.076Z,2.00
2023-05-06T18:43:12.127Z,1.10
2023-05-06T18:45:50.553Z,1.20
2023-05-06T18:48:21.397Z,1.40
2023-05-06T18:50:51.759Z,1.40
2023-05-06T18:53:22.960Z,1.37
2023-05-06T18:55:51.988Z,1.67
2023-05-06T18:58:24.618Z,1.77
2023-05-06T19:06:02.981Z,1.30
2023-05-06T19:08:37.120Z,1.40
2023-05-06T19:11:06.565Z,1.67
2023-05-06T19:13:35.260Z,1.13
2023-05-06T19:16:07.381Z,1.40
2023-05-06T19:18:34.928Z,1.67
2023-05-06T19:21:08.174Z,1.30
2023-05-06T19:30:48.853Z,1.33
2023-05-06T19:33:22.896Z,1.30
2023-05-06T19:35:54.059Z,1.30
2023-05-06T19:38:24.048Z,1.50
2023-05-06T19:40:53.145Z,1.50
2023-05-06T19:43:25.313Z,1.90
2023-05-06T19:45:56.272Z,1.60
2023-05-06T19:53:33.951Z,1.60
2023-05-06T19:56:10.963Z,1.40
2023-05-06T19:58:42.856Z,1.20
2023-05-06T20:01:13.000Z,0.97
2023-05-06T20:03:43.336Z,1.00
2023-05-06T20:06:15.805Z,1.33
2023-05-06T20:08:48.303Z,1.10
2023-05-06T20:16:26.331Z,1.10
2023-05-06T20:18:56.192Z,1.20
2023-05-06T20:21:25.441Z,1.10
2023-05-06T20:23:55.710Z,1.00
2023-05-06T20:26:26.618Z,0.80
2023-05-06T20:28:59.937Z,0.97
2023-05-06T20:31:40.913Z,1.40
2023-05-06T20:36:55.269Z,1.00
2023-05-06T20:39:25.446Z,0.90
2023-05-06T20:41:56.036Z,0.87
2023-05-06T20:44:28.045Z,0.70
2023-05-06T20:46:59.860Z,1.13
2023-05-06T20:49:32.398Z,0.90
2023-05-06T20:52:06.131Z,0.87
2023-05-06T20:57:17.629Z,0.90
2023-05-06T20:59:46.581Z,1.03
2023-05-06T21:02:16.480Z,1.07
2023-05-06T21:04:44.867Z,1.20
2023-05-06T21:07:15.214Z,1.00
2023-05-06T21:09:45.131Z,1.00
2023-05-06T21:12:12.711Z,1.30
2023-05-06T21:17:44.126Z,1.20
2023-05-06T21:20:13.621Z,1.07
2023-05-06T21:22:45.249Z,1.03
2023-05-06T21:25:17.211Z,0.80
2023-05-06T21:27:46.083Z,1.10
2023-05-06T21:30:14.763Z,1.03
2023-05-06T21:32:44.430Z,1.20
2023-05-06T21:40:21.317Z,1.30
2023-05-06T21:42:48.946Z,1.63
2023-05-06T21:45:16.594Z,1.43
2023-05-06T21:47:45.041Z,1.40
2023-05-06T21:50:13.379Z,1.03
2023-05-06T21:52:41.512Z,1.67
2023-05-06T21:55:09.499Z,1.67
2023-05-06T22:00:34.293Z,1.77
2023-05-06T22:03:01.631Z,1.23
2023-05-06T22:05:29.442Z,1.40
2023-05-06T22:07:56.969Z,1.40
2023-05-06T22:10:24.555Z,1.60
2023-05-06T22:12:52.778Z,1.90
2023-05-06T22:15:20.020Z,1.70
2023-05-06T22:20:28.038Z,1.90
2023-05-06T22:22:55.177Z,1.23
2023-05-06T22:25:23.412Z,1.80
2023-05-06T22:27:50.868Z,1.50
2023-05-06T22:30:18.072Z,1.27
2023-05-06T22:32:45.658Z,1.20
2023-05-06T22:35:13.534Z,1.30
2023-05-06T22:45:28.620Z,1.50
2023-05-06T22:47:56.377Z,1.80
2023-05-06T22:50:24.254Z,1.50
2023-05-06T22:52:51.455Z,1.80
2023-05-06T22:55:18.774Z,1.47
2023-05-06T22:57:49.500Z,1.30
2023-05-06T23:00:18.543Z,1.80
2023-05-06T23:05:24.539Z,1.47
2023-05-06T23:07:51.783Z,2.03
2023-05-06T23:10:19.453Z,1.97
2023-05-06T23:12:47.489Z,1.70
2023-05-06T23:15:14.640Z,1.80
2023-05-06T23:17:42.023Z,2.00
2023-05-06T23:20:11.366Z,1.83
2023-05-06T23:22:39.789Z,1.80
2023-05-06T23:30:14.598Z,1.43
2023-05-06T23:32:41.893Z,1.50
2023-05-06T23:35:10.190Z,1.50
2023-05-06T23:37:38.284Z,1.53
2023-05-06T23:40:06.873Z,1.63
2023-05-06T23:42:33.991Z,1.47
2023-05-06T23:45:01.337Z,1.63
2023-05-06T23:50:11.069Z,1.23
2023-05-06T23:52:38.609Z,1.10
2023-05-06T23:55:06.848Z,1.33
2023-05-06T23:57:34.102Z,1.70
